aviador You're here:

KEQY Decoded Metar

MONROE in NC, USA
Report Time2017-08-18 17:53:00
UTC Time2017-08-18 18:18:37
Flight Rules vfr VFR
Wind240° at 09 kt
W.Decomp.*RWY 23: 8.7 kt HW 2.5 kt RCW
W.Rank240° ranks 3
Current wind is above 240° avg. (7.4)
Visibility9999 m
Phenomena:N/A
Clouds:N/A
Expected CloudBase > 4,800 ft AGL from Temp-Dew spread
CeilingNone
Temp33°C (ISA +19)
Dew Point21°C (49% RH)
Heat Index36.0°C
QNH1013 hPa
Density Alt3,232 ft
Elevation696 ft
Report Wrong Elevation
Raw Report
METAR KEQY 181753Z AUTO 24009KT 10SM CLR 33/21 A2992 RMK AO2 SLP124
T03330206 10333 20250 56013=

Extra information for KEQY:More info

Metar Taf Metar & Taf Last 4 Metars F.Rules Stats Wind Profile Meteogram Temp Stats Airport Information Weather charts Add Link Nearby VenuesMetar ALERT Operation Metar Decoded Social comments

AIRNAV info for KEQY